createdAt,value
2023-04-16T00:01:59.827Z,101317.81
2023-04-16T00:07:01.232Z,101313.56
2023-04-16T00:12:02.975Z,101311.94
2023-04-16T00:17:04.357Z,101316.50
2023-04-16T00:22:05.671Z,101316.66
2023-04-16T00:27:09.313Z,101324.13
2023-04-16T00:32:10.666Z,101320.91
2023-04-16T00:37:11.967Z,101323.81
2023-04-16T00:42:13.376Z,101323.50
2023-04-16T00:47:14.692Z,101324.63
2023-04-16T00:52:16.003Z,101323.34
2023-04-16T00:57:17.364Z,101336.97
2023-04-16T01:02:18.932Z,101331.31
2023-04-16T01:07:20.296Z,101336.03
2023-04-16T01:12:21.816Z,101333.06
2023-04-16T01:17:23.172Z,101335.19
2023-04-16T01:22:24.563Z,101346.25
2023-04-16T01:27:27.041Z,101343.66
2023-04-16T01:32:31.461Z,101341.84
2023-04-16T01:37:33.229Z,101343.16
2023-04-16T01:42:34.589Z,101347.06
2023-04-16T01:47:36.084Z,101356.16
2023-04-16T01:52:37.511Z,101357.19
2023-04-16T01:57:38.951Z,101355.22
2023-04-16T02:02:40.728Z,101354.56
2023-04-16T02:07:42.110Z,101354.88
2023-04-16T02:12:43.416Z,101353.91
2023-04-16T02:17:46.566Z,101352.13
2023-04-16T02:22:48.124Z,101352.44
2023-04-16T02:27:49.474Z,101354.22
2023-04-16T02:32:50.888Z,101351.44
2023-04-16T02:37:52.248Z,101351.25
2023-04-16T02:42:54.053Z,101362.59
2023-04-16T02:47:55.401Z,101355.78
2023-04-16T02:52:56.816Z,101351.06
2023-04-16T02:57:58.126Z,101354.97
2023-04-16T03:02:59.505Z,101357.25
2023-04-16T03:08:01.000Z,101363.25
2023-04-16T03:13:02.442Z,101355.28
2023-04-16T03:18:03.840Z,101365.38
2023-04-16T03:23:05.236Z,101359.69
2023-04-16T03:28:06.544Z,101360.66
2023-04-16T03:33:07.896Z,101356.69
2023-04-16T03:38:09.190Z,101361.28
2023-04-16T03:43:10.504Z,101366.16
2023-04-16T03:48:11.845Z,101375.91
2023-04-16T03:53:13.310Z,101366.81
2023-04-16T03:58:14.610Z,101368.13
2023-04-16T04:03:17.925Z,101370.06
2023-04-16T04:08:19.606Z,101375.91
2023-04-16T04:13:21.035Z,101381.97
2023-04-16T04:18:22.407Z,101381.31
2023-04-16T04:23:24.031Z,101390.91
2023-04-16T04:28:25.429Z,101382.78
2023-04-16T04:33:26.827Z,101386.22
2023-04-16T04:38:28.222Z,101389.91
2023-04-16T04:43:29.597Z,101395.47
2023-04-16T04:48:31.039Z,101395.59
2023-04-16T04:53:32.400Z,101404.53
2023-04-16T04:58:33.733Z,101407.00
2023-04-16T05:03:35.417Z,101413.81
2023-04-16T05:08:36.846Z,101419.81
2023-04-16T05:13:38.282Z,101414.47
2023-04-16T05:18:39.616Z,101417.91
2023-04-16T05:23:40.939Z,101418.75
2023-04-16T05:28:42.235Z,101426.88
2023-04-16T05:33:43.533Z,101429.91
2023-04-16T05:38:44.833Z,101441.50
2023-04-16T05:43:46.113Z,101449.44
2023-04-16T05:48:47.409Z,101445.28
2023-04-16T05:53:48.717Z,101465.78
2023-04-16T05:58:50.032Z,101465.00
2023-04-16T06:03:51.515Z,101463.09
2023-04-16T06:08:53.347Z,101460.66
2023-04-16T06:13:54.651Z,101463.28
2023-04-16T06:18:56.170Z,101455.28
2023-04-16T06:23:57.544Z,101461.31
2023-04-16T06:28:58.863Z,101464.28
2023-04-16T06:34:00.365Z,101470.28
2023-04-16T06:39:01.687Z,101473.94
2023-04-16T06:44:03.041Z,101477.97
2023-04-16T06:49:04.392Z,101477.66
2023-04-16T06:54:05.709Z,101469.53
2023-04-16T06:59:07.094Z,101475.38
2023-04-16T07:04:09.190Z,101487.41
2023-04-16T07:09:10.886Z,101481.06
2023-04-16T07:14:12.657Z,101486.78
2023-04-16T07:19:14.048Z,101488.25
2023-04-16T07:24:15.739Z,101488.56
2023-04-16T07:29:17.115Z,101494.09
2023-04-16T07:34:18.447Z,101495.63
2023-04-16T07:39:19.783Z,101503.75
2023-04-16T07:44:21.276Z,101508.97
2023-04-16T07:49:22.859Z,101512.09
2023-04-16T07:54:24.207Z,101519.41
2023-04-16T07:59:26.112Z,101520.06
2023-04-16T08:04:27.899Z,101529.34
2023-04-16T08:09:29.454Z,101525.94
2023-04-16T08:14:30.893Z,101536.03
2023-04-16T08:19:32.509Z,101544.72
2023-04-16T08:24:33.835Z,101545.16
2023-04-16T08:29:35.136Z,101559.69
2023-04-16T08:34:37.083Z,101561.84
2023-04-16T08:39:38.409Z,101565.09
2023-04-16T08:44:49.008Z,101566.91
2023-04-16T08:49:53.071Z,101569.69
2023-04-16T08:54:58.463Z,101577.34
2023-04-16T09:00:00.970Z,101575.09
2023-04-16T09:05:03.455Z,101587.63
2023-04-16T09:10:06.597Z,101589.56
2023-04-16T09:15:09.676Z,101589.94
2023-04-16T09:20:11.310Z,101593.84
2023-04-16T09:25:12.989Z,101599.72
2023-04-16T09:30:24.204Z,101599.38
2023-04-16T09:35:25.877Z,101610.09
2023-04-16T09:40:30.220Z,101613.88
2023-04-16T09:45:32.703Z,101619.75
2023-04-16T09:50:34.091Z,101623.50
2023-04-16T09:55:35.728Z,101630.19
2023-04-16T10:00:42.272Z,101626.41
2023-04-16T10:05:45.071Z,101625.47
2023-04-16T10:10:46.544Z,101632.59
2023-04-16T10:15:48.347Z,101636.50
2023-04-16T10:20:50.767Z,101639.00
2023-04-16T10:25:53.299Z,101634.28
2023-04-16T10:30:57.178Z,101630.22
2023-04-16T10:36:12.261Z,101638.00
2023-04-16T10:41:14.024Z,101633.13
2023-04-16T10:46:19.271Z,101638.44
2023-04-16T10:51:24.400Z,101631.41
2023-04-16T10:56:26.957Z,101631.47
2023-04-16T11:01:32.720Z,101636.56
2023-04-16T11:06:34.166Z,101633.81
2023-04-16T11:11:38.462Z,101636.38
2023-04-16T11:16:40.658Z,101636.88
2023-04-16T11:21:44.773Z,101632.72
2023-04-16T11:26:50.887Z,101630.09
2023-04-16T11:31:52.985Z,101635.94
2023-04-16T11:36:54.391Z,101640.22
2023-04-16T11:41:56.010Z,101636.38
2023-04-16T11:46:57.460Z,101642.56
2023-04-16T11:52:00.388Z,101640.25
2023-04-16T11:57:04.319Z,101641.13
2023-04-16T12:02:05.866Z,101642.47
2023-04-16T12:07:08.229Z,101636.91
2023-04-16T12:12:26.191Z,101636.09
2023-04-16T12:17:27.584Z,101647.91
2023-04-16T12:22:29.898Z,101651.31
2023-04-16T12:28:04.524Z,101644.06
2023-04-16T12:33:16.001Z,101647.44
2023-04-16T12:38:17.425Z,101640.25
2023-04-16T12:43:19.788Z,101644.31
2023-04-16T12:48:21.293Z,101651.09
2023-04-16T12:53:22.840Z,101644.50
2023-04-16T12:58:24.178Z,101650.56
2023-04-16T13:03:26.079Z,101644.72
2023-04-16T13:08:27.595Z,101646.50
2023-04-16T13:13:28.929Z,101641.41
2023-04-16T13:18:30.446Z,101646.03
2023-04-16T13:23:31.811Z,101640.25
2023-04-16T13:28:33.256Z,101639.84
2023-04-16T13:33:34.651Z,101637.38
2023-04-16T13:38:36.153Z,101638.06
2023-04-16T13:43:37.453Z,101638.47
2023-04-16T13:48:38.898Z,101636.22
2023-04-16T13:53:40.269Z,101639.75
2023-04-16T13:58:41.746Z,101634.53
2023-04-16T14:03:43.289Z,101629.84
2023-04-16T14:08:45.508Z,101625.91
2023-04-16T14:13:46.893Z,101632.53
2023-04-16T14:18:48.313Z,101628.22
2023-04-16T14:23:49.710Z,101634.34
2023-04-16T14:28:51.111Z,101633.69
2023-04-16T14:33:52.437Z,101640.34
2023-04-16T14:38:53.760Z,101628.44
2023-04-16T14:43:55.211Z,101632.00
2023-04-16T14:48:56.528Z,101630.69
2023-04-16T14:53:58.014Z,101618.66
2023-04-16T14:58:59.345Z,101627.41
2023-04-16T15:04:02.191Z,101617.69
2023-04-16T15:09:04.200Z,101619.34
2023-04-16T15:14:05.576Z,101627.00
2023-04-16T15:19:06.927Z,101622.38
2023-04-16T15:24:08.499Z,101619.06
2023-04-16T15:29:10.573Z,101625.22
2023-04-16T15:34:12.091Z,101623.22
2023-04-16T15:39:13.786Z,101623.94
2023-04-16T15:44:16.231Z,101611.97
2023-04-16T15:49:17.603Z,101630.69
2023-04-16T15:54:19.100Z,101627.44
2023-04-16T15:59:20.597Z,101619.38
2023-04-16T16:04:22.863Z,101621.75
2023-04-16T16:09:28.002Z,101623.19
2023-04-16T16:14:29.588Z,101617.78
2023-04-16T16:19:33.023Z,101618.09
2023-04-16T16:24:34.318Z,101622.53
2023-04-16T16:29:35.717Z,101622.81
2023-04-16T16:34:37.333Z,101621.84
2023-04-16T16:39:39.071Z,101617.59
2023-04-16T16:44:40.996Z,101623.72
2023-04-16T16:49:43.526Z,101624.38
2023-04-16T16:54:44.900Z,101624.38
2023-04-16T16:59:49.105Z,101627.44
2023-04-16T17:04:51.800Z,101622.91
2023-04-16T17:09:53.301Z,101640.66
2023-04-16T17:14:56.005Z,101631.28
2023-04-16T17:19:57.392Z,101638.16
2023-04-16T17:24:58.761Z,101642.78
2023-04-16T17:30:01.727Z,101639.59
2023-04-16T17:35:04.590Z,101651.09
2023-04-16T17:40:07.667Z,101659.03
2023-04-16T17:45:09.397Z,101665.78
2023-04-16T17:50:11.456Z,101677.06
2023-04-16T17:55:13.082Z,101679.19
2023-04-16T18:00:14.564Z,101679.84
2023-04-16T18:05:15.952Z,101680.53
2023-04-16T18:10:17.267Z,101682.81
2023-04-16T18:15:18.720Z,101688.84
2023-04-16T18:20:20.526Z,101697.88
2023-04-16T18:25:32.190Z,101703.94
2023-04-16T18:30:35.514Z,101715.72
2023-04-16T18:35:38.528Z,101715.25
2023-04-16T18:40:40.576Z,101713.78
2023-04-16T18:45:41.892Z,101715.78
2023-04-16T18:50:43.198Z,101721.97
2023-04-16T18:55:44.545Z,101722.94
2023-04-16T19:00:46.223Z,101725.59
2023-04-16T19:05:47.581Z,101723.78
2023-04-16T19:10:49.560Z,101723.13
2023-04-16T19:15:50.936Z,101726.91
2023-04-16T19:20:58.291Z,101732.78
2023-04-16T19:26:01.288Z,101740.13
2023-04-16T19:31:02.668Z,101738.31
2023-04-16T19:36:04.151Z,101746.81
2023-04-16T19:41:05.477Z,101743.88
2023-04-16T19:46:06.866Z,101748.44
2023-04-16T19:51:08.187Z,101747.50
2023-04-16T19:56:09.634Z,101749.13
2023-04-16T20:01:11.403Z,101744.53
2023-04-16T20:06:12.725Z,101750.25
2023-04-16T20:11:14.068Z,101745.84
2023-04-16T20:16:15.497Z,101754.03
2023-04-16T20:21:16.853Z,101750.41
2023-04-16T20:26:18.462Z,101761.19
2023-04-16T20:31:19.920Z,101750.41
2023-04-16T20:36:21.582Z,101742.56
2023-04-16T20:41:25.075Z,101755.97
2023-04-16T20:46:30.034Z,101745.69
2023-04-16T20:51:31.543Z,101746.34
2023-04-16T20:56:32.856Z,101742.56
2023-04-16T21:01:34.394Z,101745.03
2023-04-16T21:06:38.343Z,101754.31
2023-04-16T21:11:39.661Z,101749.91
2023-04-16T21:16:41.023Z,101745.34
2023-04-16T21:21:42.626Z,101750.56
2023-04-16T21:26:44.057Z,101748.13
2023-04-16T21:31:45.501Z,101744.06
2023-04-16T21:36:46.833Z,101741.13
2023-04-16T21:41:48.251Z,101746.19
2023-04-16T21:46:49.904Z,101744.53
2023-04-16T21:51:58.877Z,101744.88
2023-04-16T21:57:00.238Z,101737.22
2023-04-16T22:02:01.657Z,101741.13
2023-04-16T22:07:03.791Z,101744.88
2023-04-16T22:12:06.924Z,101751.41
2023-04-16T22:17:09.435Z,101749.91
2023-04-16T22:22:10.913Z,101750.91
2023-04-16T22:27:12.233Z,101754.00
2023-04-16T22:32:13.761Z,101743.38
2023-04-16T22:37:15.608Z,101753.38
2023-04-16T22:42:16.914Z,101746.19
2023-04-16T22:47:18.256Z,101747.00
2023-04-16T22:52:19.618Z,101745.69
2023-04-16T22:57:24.808Z,101745.53
2023-04-16T23:02:26.326Z,101741.63
2023-04-16T23:07:27.718Z,101741.94
2023-04-16T23:12:29.346Z,101738.34
2023-04-16T23:17:30.744Z,101741.13
2023-04-16T23:22:32.128Z,101747.47
2023-04-16T23:27:33.516Z,101756.78
2023-04-16T23:32:35.178Z,101751.88
2023-04-16T23:37:36.620Z,101752.53
2023-04-16T23:42:37.985Z,101752.69
2023-04-16T23:47:40.263Z,101749.75
2023-04-16T23:52:41.667Z,101748.44
2023-04-16T23:57:42.974Z,101742.88
